Accueil
METAR-TAF:

METAR-TAF

Aéroports :

Londres Biggin Hill, Angleterre

Aérodrome de Londres Biggin Hill

latitude: 51-19N, longitude: 000-02E, altitude: 183 m

Observation

Le bulletin a été fait il y a 2 heures et 57 minutes, à 18:50 UTC
Vent 11 kt de sud/sud-ouest
Température 10°C
Humidité 82%
Pression 1023 hPa
Visibilité 10 km ou plus
Quelques nuages à une hauteur de 2500 ft

METAR: EGKB 231850Z 20011KT 9999 FEW025 10/07 Q1023

Heure: 22:47 (21:47 UTC)

Prévision

Le bulletin a été fait il y a 7 heures et 47 minutes, à 14:00 UTC
Prévision valable du 23 à 15 UTC au 23 à 19 UTC
Vent 9 kt de sud
Visibilité 10 km ou plus
Nuages épars à une hauteur de 2500 ft
Probabilité 30% :
Temporairement
du 23 à 15 UTC au 23 à 18 UTC
Visibilité: 9000 m
faibles averses de pluie

TAF: EGKB 231400Z 2315/2319 17009KT 9999 SCT025 PROB30 TEMPO 2315/2318 9000 -SHRA

Observations et prévisions météorologiques de plus de 4000 aéroports (messages METAR et TAF).

Les stations disponibles sont représentées par des disques jaunes et rouges sur la carte.

Passer la souris dessus pour voir le nom de la station.

Cliquer dessus pour voir les observations et prévisions météorologiques.

Pour changer de carte: cliquez sur les boutons verts avec une croix noire pour zoomer, sur le bouton vert avec un tiret pour effectuer un zoom arrière, ou sur les flèches vertes pour les cartes adjacentes.


METAR-TAF: